Weather observations for the past three days for
Gambell, Gambell Airport
Imperial (Metric)
Date Time (akdt) Wind (mph) Vis. (mi.) Weather Sky Cond. Temperature (ºF) Relative Humidity Wind Chill (°F) Heat Index (°F) Pressure Precipitation (in)
Air Dwpt 6 hour altimeter (in) sea level (mb) 1 hr 3 hr 6 hr
Max. Min.
04 15:56 W 5 10.00 Overcast OVC007 28 25 35.1 28 88% 24 30.11 1020.1
04 14:56 NW 5 10.00 Overcast OVC009 28.9 25 85% 25 30.11 1020.3
04 13:56 W 7 10.00 Overcast OVC009 28.9 25 85% 23 30.12 1020.6
04 12:56 Calm 10.00 Overcast OVC009 34 27 76% 30.13 1020.8
04 11:56 NW 7 10.00 Overcast OVC009 32 26.1 79% 26 30.12 1020.7
04 10:56 NW 6 10.00 Overcast OVC011 32 26.1 79% 27 30.12 1020.6
04 09:56 N 6 10.00 Overcast OVC011 30.9 28 30.9 28 89% 26 30.12 1020.6
04 08:56 NW 7 10.00 Overcast SCT005 OVC009 30 28 92% 24 30.11 1020.3
04 07:56 W 3 4.00 Fog/Mist OVC004 30 28 92% 30.1 1020.0
04 06:56 S 3 10.00 Overcast OVC006 28.9 27 92% 30.1 1020.0
04 05:56 S 6 10.00 Overcast OVC006 28.9 27 92% 23 30.11 1020.0
04 04:56 S 8 9.00 Light Snow OVC006 28.9 27 92% 22 30.1 1020.0
04 03:56 SE 10 9.00 Light Snow OVC004 28 26.1 28 26.1 92% 19 30.11 1020.2
04 02:56 S 8 10.00 Overcast OVC004 27 26.1 96% 19 30.1 1020.0
04 01:56 S 9 10.00 Overcast OVC004 27 25 92% 19 30.11 1020.2
04 00:56 S 9 10.00 Overcast OVC004 27 25 92% 19 30.11 1020.2
03 23:56 SW 12 10.00 Overcast OVC004 26.1 24.1 92% 16 30.11 1020.3
03 22:56 S 13 10.00 Overcast OVC004 26.1 24.1 92% 16 30.11 1020.1
03 21:56 S 10 10.00 Overcast OVC004 27 24.1 32 27 89% 18 30.1 1020.0
03 20:56 SW 9 10.00 Overcast OVC004 28 24.1 85% 20 30.11 1020.1
03 19:56 SW 9 10.00 Overcast OVC004 28.9 25 85% 21 30.11 1020.1
03 18:56 S 10 10.00 Overcast OVC004 30 25 82% 22 30.1 1020.0
03 17:56 SW 10 10.00 Overcast OVC006 30.9 26.1 82% 23 30.1 1019.9
03 16:56 SW 9 10.00 Overcast OVC004 32 26.1 79% 25 30.1 1019.7
03 15:56 SW 12 10.00 Overcast OVC004 30.9 26.1 30.9 27 82% 22 30.1 1019.7
03 14:56 SW 14 10.00 Overcast OVC004 30.9 26.1 82% 21 30.09 1019.7
03 13:56 SW 13 10.00 Overcast OVC006 30 26.1 85% 21 30.09 1019.5
03 12:56 SW 15 10.00 Overcast OVC006 30 25 82% 20 30.09 1019.5
03 11:56 SW 14 10.00 Overcast OVC006 30 27 88% 20 30.08 1019.2
03 10:56 SW 15 10.00 Overcast OVC004 27 24.1 89% 16 30.07 1018.8
03 09:56 SW 12 10.00 Overcast OVC004 27 25 27 25 92% 17 30.05 1018.3
03 08:56 SW 12 10.00 Mostly Cloudy BKN006 26.1 24.1 92% 16 30.04 1018.0
03 07:56 SW 10 10.00 Fair CLR 25 23 92% 16 30.03 1017.5
03 06:56 SW 12 10.00 Fair CLR 25 24.1 96% 15 30.03 1017.4
03 05:56 SW 10 10.00 Fair CLR 26.1 24.1 92% 17 30.02 1017.1
03 04:56 SW 10 10.00 Fair CLR 26.1 24.1 92% 17 30.01 1016.9
03 03:56 SW 10 10.00 Partly Cloudy SCT055 26.1 24.1 28.9 26.1 92% 17 30.01 1016.8
03 02:56 SW 10 10.00 Overcast SCT012 OVC060 27 24.1 89% 18 30 1016.6
03 01:56 SW 12 10.00 Overcast OVC012 28 24.1 85% 19 30 1016.5
03 00:56 SW 12 10.00 Overcast OVC012 27 24.1 89% 17 29.99 1016.1
02 23:56 SW 10 10.00 Overcast OVC010 28.9 25 85% 20 29.97 1015.6
02 22:56 W 9 10.00 Overcast OVC008 28.9 26.1 89% 21 29.96 1015.1
02 21:56 SW 10 6.00 Light Snow Fog/Mist OVC010 28.9 26.1 30 28 89% 20 29.94 1014.5
02 20:56 W 10 6.00 Light Snow Fog/Mist OVC008 28 26.1 92% 19 29.93 1014.1
02 19:56 W 12 10.00 Overcast OVC008 28.9 26.1 89% 20 29.92 1013.8
02 18:56 W 12 10.00 Overcast OVC008 28.9 25 85% 20 29.91 1013.3
02 17:56 W 12 10.00 Overcast OVC010 28.9 25 85% 20 29.9 1012.9
02 16:56 W 15 10.00 Fair CLR 28.9 24.1 82% 18 29.88 1012.3
02 15:56 W 18 10.00 Unknown Precip CLR 30 24.1 34 26.1 79% 19 29.85 1011.5
02 14:56 S 3 10.00 Fair CLR 33.1 23 66% 29.84 1011.0
02 13:56 SE 7 10.00 Fair CLR 30.9 23 72% 25 29.82 1010.3
02 12:56 S 6 10.00 Fair CLR 30 21.9 72% 25 29.8 1009.6
02 11:56 S 7 10.00 Fair CLR 28.9 21 72% 23 29.78 1008.9
02 10:56 E 5 10.00 A Few Clouds FEW013 28 19.9 72% 24 29.75 1007.9
02 09:56 E 3 10.00 Overcast OVC013 26.1 19.9 26.1 23 78% 29.73 1007.2
02 08:56 NE 7 10.00 Overcast OVC013 24.1 19 81% 17 29.7 1006.3
02 07:56 NE 7 10.00 Overcast OVC015 24.1 19 81% 17 29.68 1005.8
02 06:56 NE 9 10.00 Overcast FEW013 OVC039 24.1 19.9 84% 15 29.65 1004.7
02 05:56 NE 7 10.00 Overcast OVC015 24.1 19.9 84% 17 29.63 1004.1
02 04:56 NE 8 10.00 Overcast OVC019 23 19 85% 15 29.61 1003.4
02 03:56 N 7 10.00 Overcast OVC034 24.1 19.9 27 24.1 84% 17 29.59 1002.5
02 02:56 N 7 10.00 Overcast SCT026 OVC034 26.1 21 81% 19 29.58 1002.2
02 01:56 N 12 10.00 Overcast OVC022 26.1 21 81% 16 29.56 1001.5
02 00:56 N 13 10.00 Overcast OVC026 25 21 85% 14 29.55 1001.1
01 23:56 N 14 10.00 Partly Cloudy SCT028 24.1 19.9 84% 13 29.52 1000.2
01 22:56 N 18 10.00 Fair CLR 25 21 85% 12 29.5 999.6
01 21:56 N 17 10.00 Overcast OVC032 27 21.9 30.9 27 81% 15 29.48 998.8
01 20:56 N 18 10.00 Overcast SCT027 BKN036 OVC047 27 23 85% 15 29.47 998.4
01 19:56 N 24 G 31 10.00 Overcast and Breezy OVC023 27 21.9 81% 13 29.45 998.0
01 18:56 N 25 G 30 10.00 Overcast and Breezy BKN011 OVC017 27 23 85% 13 29.44 997.3
01 17:56 N 23 10.00 Overcast and Breezy OVC009 28 24.1 85% 15 29.43 997.1
01 16:56 N 23 10.00 Overcast and Breezy FEW008 BKN013 OVC026 30 26.1 85% 17 29.42 996.8
Date Time (akdt) Wind (mph) Vis. (mi.) Weather Sky Cond. Air Dwpt Max. Min. Relative Humidity Wind Chill (°F) Heat Index (°F) altimeter (in) sea level (mb) 1 hr 3 hr 6 hr
6 hour
Temperature (ºF) Pressure Precipitation (in)